sensor_id;sensor_type;location;lat;lon;timestamp;temperature;humidity
6956;DHT22;50345;51.136;16.886;2022-08-01T00:00:21;17.60;99.90
6956;DHT22;50345;51.136;16.886;2022-08-01T00:02:47;17.60;99.90
6956;DHT22;50345;51.136;16.886;2022-08-01T00:05:13;17.60;99.90
6956;DHT22;50345;51.136;16.886;2022-08-01T00:07:39;17.70;99.90
6956;DHT22;50345;51.136;16.886;2022-08-01T00:10:08;17.60;99.90
6956;DHT22;50345;51.136;16.886;2022-08-01T00:12:34;17.60;99.90
6956;DHT22;50345;51.136;16.886;2022-08-01T00:15:00;17.60;99.90
6956;DHT22;50345;51.136;16.886;2022-08-01T00:17:25;17.60;99.90
6956;DHT22;50345;51.136;16.886;2022-08-01T00:19:51;17.60;99.90
6956;DHT22;50345;51.136;16.886;2022-08-01T00:22:17;17.60;99.90
6956;DHT22;50345;51.136;16.886;2022-08-01T00:24:42;17.60;99.90
6956;DHT22;50345;51.136;16.886;2022-08-01T00:27:08;17.60;99.90
6956;DHT22;50345;51.136;16.886;2022-08-01T00:29:34;17.50;99.90
6956;DHT22;50345;51.136;16.886;2022-08-01T00:31:59;17.50;99.90
6956;DHT22;50345;51.136;16.886;2022-08-01T00:34:25;17.50;99.90
6956;DHT22;50345;51.136;16.886;2022-08-01T00:36:50;17.40;99.90
6956;DHT22;50345;51.136;16.886;2022-08-01T00:39:16;17.50;99.90
6956;DHT22;50345;51.136;16.886;2022-08-01T00:44:07;17.40;99.90
6956;DHT22;50345;51.136;16.886;2022-08-01T00:46:33;17.30;99.90
6956;DHT22;50345;51.136;16.886;2022-08-01T00:48:59;17.40;99.90
6956;DHT22;50345;51.136;16.886;2022-08-01T00:51:26;17.30;99.90
6956;DHT22;50345;51.136;16.886;2022-08-01T00:53:52;17.20;99.90
6956;DHT22;50345;51.136;16.886;2022-08-01T00:56:23;17.20;99.90
6956;DHT22;50345;51.136;16.886;2022-08-01T00:58:49;17.20;99.90
6956;DHT22;50345;51.136;16.886;2022-08-01T01:01:15;17.30;99.90
6956;DHT22;50345;51.136;16.886;2022-08-01T01:03:41;17.20;99.90
6956;DHT22;50345;51.136;16.886;2022-08-01T01:09:17;17.20;99.90
6956;DHT22;50345;51.136;16.886;2022-08-01T01:14:36;17.20;99.90
6956;DHT22;50345;51.136;16.886;2022-08-01T01:17:06;17.20;99.90
6956;DHT22;50345;51.136;16.886;2022-08-01T01:19:39;17.20;99.90
6956;DHT22;50345;51.136;16.886;2022-08-01T01:25:17;17.20;99.90
6956;DHT22;50345;51.136;16.886;2022-08-01T01:28:01;17.20;99.90
6956;DHT22;50345;51.136;16.886;2022-08-01T01:30:29;17.20;99.90
6956;DHT22;50345;51.136;16.886;2022-08-01T01:33:00;17.20;99.90
6956;DHT22;50345;51.136;16.886;2022-08-01T01:35:29;17.20;99.90
6956;DHT22;50345;51.136;16.886;2022-08-01T01:38:13;17.10;99.90
6956;DHT22;50345;51.136;16.886;2022-08-01T01:40:40;17.10;99.90
6956;DHT22;50345;51.136;16.886;2022-08-01T01:43:10;17.20;99.90
6956;DHT22;50345;51.136;16.886;2022-08-01T01:45:37;17.20;99.90
6956;DHT22;50345;51.136;16.886;2022-08-01T01:48:05;17.10;99.90
6956;DHT22;50345;51.136;16.886;2022-08-01T01:50:32;17.20;99.90
6956;DHT22;50345;51.136;16.886;2022-08-01T01:52:59;17.30;99.90
6956;DHT22;50345;51.136;16.886;2022-08-01T01:55:26;17.30;99.90
6956;DHT22;50345;51.136;16.886;2022-08-01T01:57:53;17.30;99.90
6956;DHT22;50345;51.136;16.886;2022-08-01T02:00:21;17.30;99.90
6956;DHT22;50345;51.136;16.886;2022-08-01T02:02:47;17.30;99.90
6956;DHT22;50345;51.136;16.886;2022-08-01T02:05:13;17.30;99.90
6956;DHT22;50345;51.136;16.886;2022-08-01T02:07:40;17.20;99.90
6956;DHT22;50345;51.136;16.886;2022-08-01T02:10:07;17.20;99.90
6956;DHT22;50345;51.136;16.886;2022-08-01T02:12:37;17.20;99.90
6956;DHT22;50345;51.136;16.886;2022-08-01T02:15:04;17.20;99.90
6956;DHT22;50345;51.136;16.886;2022-08-01T02:17:31;17.10;99.90
6956;DHT22;50345;51.136;16.886;2022-08-01T02:19:57;17.10;99.90
6956;DHT22;50345;51.136;16.886;2022-08-01T02:22:30;17.00;99.90
6956;DHT22;50345;51.136;16.886;2022-08-01T02:27:42;16.90;99.90
6956;DHT22;50345;51.136;16.886;2022-08-01T02:30:11;16.80;99.90
6956;DHT22;50345;51.136;16.886;2022-08-01T02:32:49;16.80;99.90
6956;DHT22;50345;51.136;16.886;2022-08-01T02:35:28;16.80;99.90
6956;DHT22;50345;51.136;16.886;2022-08-01T02:37:56;16.70;99.90
6956;DHT22;50345;51.136;16.886;2022-08-01T02:40:23;16.60;99.90
6956;DHT22;50345;51.136;16.886;2022-08-01T02:42:52;16.60;99.90
6956;DHT22;50345;51.136;16.886;2022-08-01T02:45:24;16.60;99.90
6956;DHT22;50345;51.136;16.886;2022-08-01T02:47:51;16.60;99.90
6956;DHT22;50345;51.136;16.886;2022-08-01T02:50:18;16.60;99.90
6956;DHT22;50345;51.136;16.886;2022-08-01T02:52:48;16.60;99.90
6956;DHT22;50345;51.136;16.886;2022-08-01T02:55:14;16.50;99.90
6956;DHT22;50345;51.136;16.886;2022-08-01T02:57:42;16.50;99.90
6956;DHT22;50345;51.136;16.886;2022-08-01T03:00:08;16.50;99.90
6956;DHT22;50345;51.136;16.886;2022-08-01T03:02:35;16.50;99.90
6956;DHT22;50345;51.136;16.886;2022-08-01T03:05:02;16.60;99.90
6956;DHT22;50345;51.136;16.886;2022-08-01T03:07:28;16.60;99.90
6956;DHT22;50345;51.136;16.886;2022-08-01T03:09:56;16.60;99.90
6956;DHT22;50345;51.136;16.886;2022-08-01T03:12:25;16.60;99.90
6956;DHT22;50345;51.136;16.886;2022-08-01T03:14:54;16.70;99.90
6956;DHT22;50345;51.136;16.886;2022-08-01T03:17:23;16.70;99.90
6956;DHT22;50345;51.136;16.886;2022-08-01T03:19:50;16.70;99.90
6956;DHT22;50345;51.136;16.886;2022-08-01T03:22:18;16.80;99.90
6956;DHT22;50345;51.136;16.886;2022-08-01T03:24:51;16.80;99.90
6956;DHT22;50345;51.136;16.886;2022-08-01T03:27:19;16.90;99.90
6956;DHT22;50345;51.136;16.886;2022-08-01T03:29:47;16.90;99.90
6956;DHT22;50345;51.136;16.886;2022-08-01T03:32:13;16.90;99.90
6956;DHT22;50345;51.136;16.886;2022-08-01T03:34:40;17.00;99.90
6956;DHT22;50345;51.136;16.886;2022-08-01T03:37:11;17.00;99.90
6956;DHT22;50345;51.136;16.886;2022-08-01T03:39:47;17.00;99.90
6956;DHT22;50345;51.136;16.886;2022-08-01T03:42:20;17.10;99.90
6956;DHT22;50345;51.136;16.886;2022-08-01T03:44:54;17.20;99.90
6956;DHT22;50345;51.136;16.886;2022-08-01T03:47:22;17.20;99.90
6956;DHT22;50345;51.136;16.886;2022-08-01T03:49:50;17.30;99.90
6956;DHT22;50345;51.136;16.886;2022-08-01T03:52:18;17.30;99.90
6956;DHT22;50345;51.136;16.886;2022-08-01T03:54:47;17.30;99.90
6956;DHT22;50345;51.136;16.886;2022-08-01T03:57:15;17.30;99.90
6956;DHT22;50345;51.136;16.886;2022-08-01T03:59:41;17.30;99.90
6956;DHT22;50345;51.136;16.886;2022-08-01T04:02:08;17.30;99.90
6956;DHT22;50345;51.136;16.886;2022-08-01T04:04:34;17.40;99.90
6956;DHT22;50345;51.136;16.886;2022-08-01T04:07:00;17.40;99.90
6956;DHT22;50345;51.136;16.886;2022-08-01T04:09:32;17.40;99.90
6956;DHT22;50345;51.136;16.886;2022-08-01T04:12:00;17.40;99.90
6956;DHT22;50345;51.136;16.886;2022-08-01T04:14:27;17.40;99.90
6956;DHT22;50345;51.136;16.886;2022-08-01T04:16:54;17.40;99.90
6956;DHT22;50345;51.136;16.886;2022-08-01T04:19:19;17.40;99.90
6956;DHT22;50345;51.136;16.886;2022-08-01T04:21:45;17.50;99.90
6956;DHT22;50345;51.136;16.886;2022-08-01T04:24:14;17.50;99.90
6956;DHT22;50345;51.136;16.886;2022-08-01T04:26:42;17.50;99.90
6956;DHT22;50345;51.136;16.886;2022-08-01T04:29:09;17.60;99.90
6956;DHT22;50345;51.136;16.886;2022-08-01T04:31:36;17.70;99.90
6956;DHT22;50345;51.136;16.886;2022-08-01T04:34:05;17.70;99.90
6956;DHT22;50345;51.136;16.886;2022-08-01T04:36:33;17.70;99.90
6956;DHT22;50345;51.136;16.886;2022-08-01T04:39:02;17.70;99.90
6956;DHT22;50345;51.136;16.886;2022-08-01T04:41:30;17.80;99.90
6956;DHT22;50345;51.136;16.886;2022-08-01T04:43:57;17.80;99.90
6956;DHT22;50345;51.136;16.886;2022-08-01T04:46:25;17.80;99.90
6956;DHT22;50345;51.136;16.886;2022-08-01T04:48:51;17.90;99.90
6956;DHT22;50345;51.136;16.886;2022-08-01T04:51:17;18.00;99.90
6956;DHT22;50345;51.136;16.886;2022-08-01T04:53:47;18.10;99.90
6956;DHT22;50345;51.136;16.886;2022-08-01T04:56:13;18.10;99.90
6956;DHT22;50345;51.136;16.886;2022-08-01T04:58:40;18.20;99.90
6956;DHT22;50345;51.136;16.886;2022-08-01T05:01:06;18.20;99.90
6956;DHT22;50345;51.136;16.886;2022-08-01T05:03:32;18.30;99.90
6956;DHT22;50345;51.136;16.886;2022-08-01T05:05:58;18.40;99.90
6956;DHT22;50345;51.136;16.886;2022-08-01T05:08:24;18.40;99.90
6956;DHT22;50345;51.136;16.886;2022-08-01T05:10:50;18.50;99.90
6956;DHT22;50345;51.136;16.886;2022-08-01T05:13:15;18.50;99.90
6956;DHT22;50345;51.136;16.886;2022-08-01T05:15:41;18.60;99.90
6956;DHT22;50345;51.136;16.886;2022-08-01T05:18:07;18.60;99.90
6956;DHT22;50345;51.136;16.886;2022-08-01T05:20:32;18.70;99.90
6956;DHT22;50345;51.136;16.886;2022-08-01T05:22:58;18.70;99.90
6956;DHT22;50345;51.136;16.886;2022-08-01T05:25:23;18.80;99.90
6956;DHT22;50345;51.136;16.886;2022-08-01T05:27:49;18.80;99.90
6956;DHT22;50345;51.136;16.886;2022-08-01T05:30:15;18.80;99.90
6956;DHT22;50345;51.136;16.886;2022-08-01T05:32:41;18.90;99.90
6956;DHT22;50345;51.136;16.886;2022-08-01T05:35:07;19.00;99.90
6956;DHT22;50345;51.136;16.886;2022-08-01T05:37:33;18.90;99.90
6956;DHT22;50345;51.136;16.886;2022-08-01T05:39:59;19.00;99.90
6956;DHT22;50345;51.136;16.886;2022-08-01T05:42:25;19.00;99.90
6956;DHT22;50345;51.136;16.886;2022-08-01T05:44:50;19.10;99.90
6956;DHT22;50345;51.136;16.886;2022-08-01T05:47:16;19.10;99.90
6956;DHT22;50345;51.136;16.886;2022-08-01T05:49:43;19.20;99.90
6956;DHT22;50345;51.136;16.886;2022-08-01T05:52:09;19.40;99.90
6956;DHT22;50345;51.136;16.886;2022-08-01T05:54:34;19.50;99.90
6956;DHT22;50345;51.136;16.886;2022-08-01T05:57:00;19.60;99.90
6956;DHT22;50345;51.136;16.886;2022-08-01T05:59:27;19.70;99.90
6956;DHT22;50345;51.136;16.886;2022-08-01T06:04:19;19.80;99.90
6956;DHT22;50345;51.136;16.886;2022-08-01T06:06:44;20.00;99.90
6956;DHT22;50345;51.136;16.886;2022-08-01T06:09:10;20.10;99.90
6956;DHT22;50345;51.136;16.886;2022-08-01T06:11:36;20.20;99.90
6956;DHT22;50345;51.136;16.886;2022-08-01T06:14:01;20.30;99.90
6956;DHT22;50345;51.136;16.886;2022-08-01T06:16:27;20.50;99.90
6956;DHT22;50345;51.136;16.886;2022-08-01T06:18:53;20.70;99.90
6956;DHT22;50345;51.136;16.886;2022-08-01T06:21:18;20.80;99.90
6956;DHT22;50345;51.136;16.886;2022-08-01T06:23:44;20.90;99.90
6956;DHT22;50345;51.136;16.886;2022-08-01T06:26:09;21.10;99.90
6956;DHT22;50345;51.136;16.886;2022-08-01T06:28:36;21.20;99.90
6956;DHT22;50345;51.136;16.886;2022-08-01T06:31:01;21.30;99.90
6956;DHT22;50345;51.136;16.886;2022-08-01T06:33:27;21.40;99.90
6956;DHT22;50345;51.136;16.886;2022-08-01T06:35:53;21.40;99.90
6956;DHT22;50345;51.136;16.886;2022-08-01T06:38:19;21.50;99.90
6956;DHT22;50345;51.136;16.886;2022-08-01T06:40:44;21.60;99.90
6956;DHT22;50345;51.136;16.886;2022-08-01T06:43:10;21.70;99.90
6956;DHT22;50345;51.136;16.886;2022-08-01T06:45:38;21.80;99.90
6956;DHT22;50345;51.136;16.886;2022-08-01T06:48:04;22.00;99.90
6956;DHT22;50345;51.136;16.886;2022-08-01T06:52:56;22.40;99.90
6956;DHT22;50345;51.136;16.886;2022-08-01T06:55:22;22.50;99.90
6956;DHT22;50345;51.136;16.886;2022-08-01T07:00:15;22.80;99.90
6956;DHT22;50345;51.136;16.886;2022-08-01T07:07:36;23.40;99.90
6956;DHT22;50345;51.136;16.886;2022-08-01T07:10:01;23.40;99.90
6956;DHT22;50345;51.136;16.886;2022-08-01T07:12:27;23.40;99.90
6956;DHT22;50345;51.136;16.886;2022-08-01T07:17:18;23.60;99.90
6956;DHT22;50345;51.136;16.886;2022-08-01T07:19:46;23.60;99.90
6956;DHT22;50345;51.136;16.886;2022-08-01T07:22:11;23.60;99.90
6956;DHT22;50345;51.136;16.886;2022-08-01T07:24:37;23.70;99.90
6956;DHT22;50345;51.136;16.886;2022-08-01T07:27:02;23.70;99.90
6956;DHT22;50345;51.136;16.886;2022-08-01T07:29:28;23.80;99.90
6956;DHT22;50345;51.136;16.886;2022-08-01T07:34:21;23.90;99.90
6956;DHT22;50345;51.136;16.886;2022-08-01T07:39:14;23.90;99.90
6956;DHT22;50345;51.136;16.886;2022-08-01T08:03:33;23.70;99.90
6956;DHT22;50345;51.136;16.886;2022-08-01T08:15:43;23.60;99.90
6956;DHT22;50345;51.136;16.886;2022-08-01T08:20:34;23.50;99.90
6956;DHT22;50345;51.136;16.886;2022-08-01T08:23:00;23.40;99.90
6956;DHT22;50345;51.136;16.886;2022-08-01T08:25:26;23.30;99.90
6956;DHT22;50345;51.136;16.886;2022-08-01T08:54:49;23.40;99.90
6956;DHT22;50345;51.136;16.886;2022-08-01T08:59:45;23.80;99.90
6956;DHT22;50345;51.136;16.886;2022-08-01T09:11:58;24.60;99.90
6956;DHT22;50345;51.136;16.886;2022-08-01T09:14:25;24.90;99.90
6956;DHT22;50345;51.136;16.886;2022-08-01T09:17:06;25.10;99.90
6956;DHT22;50345;51.136;16.886;2022-08-01T09:22:12;26.10;99.90
6956;DHT22;50345;51.136;16.886;2022-08-01T09:27:20;26.80;99.90
6956;DHT22;50345;51.136;16.886;2022-08-01T09:29:46;26.60;99.90
6956;DHT22;50345;51.136;16.886;2022-08-01T09:32:11;27.10;99.90
6956;DHT22;50345;51.136;16.886;2022-08-01T09:39:33;27.40;99.90
6956;DHT22;50345;51.136;16.886;2022-08-01T09:42:18;27.70;96.70
6956;DHT22;50345;51.136;16.886;2022-08-01T09:44:44;28.10;96.50
6956;DHT22;50345;51.136;16.886;2022-08-01T10:44:02;30.10;63.00
6956;DHT22;50345;51.136;16.886;2022-08-01T10:46:30;29.80;65.20
6956;DHT22;50345;51.136;16.886;2022-08-01T10:49:11;29.80;66.20
6956;DHT22;50345;51.136;16.886;2022-08-01T10:51:39;30.00;65.00
6956;DHT22;50345;51.136;16.886;2022-08-01T10:54:07;30.10;64.30
6956;DHT22;50345;51.136;16.886;2022-08-01T10:56:46;30.10;63.70
6956;DHT22;50345;51.136;16.886;2022-08-01T10:59:22;29.80;83.10
6956;DHT22;50345;51.136;16.886;2022-08-01T11:02:03;29.50;87.40
6956;DHT22;50345;51.136;16.886;2022-08-01T11:04:54;29.10;86.70
6956;DHT22;50345;51.136;16.886;2022-08-01T11:07:43;28.80;79.20
6956;DHT22;50345;51.136;16.886;2022-08-01T11:12:48;28.70;70.60
6956;DHT22;50345;51.136;16.886;2022-08-01T11:17:41;29.10;80.70
6956;DHT22;50345;51.136;16.886;2022-08-01T11:38:47;30.10;75.50
6956;DHT22;50345;51.136;16.886;2022-08-01T11:41:23;30.00;76.60
6956;DHT22;50345;51.136;16.886;2022-08-01T11:52:25;28.80;73.70
6956;DHT22;50345;51.136;16.886;2022-08-01T11:54:55;28.70;70.30
6956;DHT22;50345;51.136;16.886;2022-08-01T11:57:25;28.60;70.30
6956;DHT22;50345;51.136;16.886;2022-08-01T11:59:54;28.60;70.80
6956;DHT22;50345;51.136;16.886;2022-08-01T12:02:25;28.70;69.60
6956;DHT22;50345;51.136;16.886;2022-08-01T12:07:18;29.60;88.70
6956;DHT22;50345;51.136;16.886;2022-08-01T12:09:44;30.10;80.20
6956;DHT22;50345;51.136;16.886;2022-08-01T12:12:15;30.30;85.10
6956;DHT22;50345;51.136;16.886;2022-08-01T12:14:42;30.30;86.60
6956;DHT22;50345;51.136;16.886;2022-08-01T12:17:08;30.10;82.50
6956;DHT22;50345;51.136;16.886;2022-08-01T12:41:45;30.20;62.50
6956;DHT22;50345;51.136;16.886;2022-08-01T12:44:14;29.80;76.90
6956;DHT22;50345;51.136;16.886;2022-08-01T15:44:03;29.10;57.80
6956;DHT22;50345;51.136;16.886;2022-08-01T15:46:29;28.90;57.70
6956;DHT22;50345;51.136;16.886;2022-08-01T15:48:54;28.60;58.10
6956;DHT22;50345;51.136;16.886;2022-08-01T15:51:20;28.50;58.60
6956;DHT22;50345;51.136;16.886;2022-08-01T15:53:45;28.90;58.50
6956;DHT22;50345;51.136;16.886;2022-08-01T16:15:41;29.80;55.90
6956;DHT22;50345;51.136;16.886;2022-08-01T16:18:08;29.70;56.50
6956;DHT22;50345;51.136;16.886;2022-08-01T16:20:34;29.10;58.10
6956;DHT22;50345;51.136;16.886;2022-08-01T16:23:01;28.60;58.90
6956;DHT22;50345;51.136;16.886;2022-08-01T16:27:52;27.50;99.90
6956;DHT22;50345;51.136;16.886;2022-08-01T16:30:18;27.40;63.80
6956;DHT22;50345;51.136;16.886;2022-08-01T16:32:43;27.20;65.30
6956;DHT22;50345;51.136;16.886;2022-08-01T16:35:09;26.90;67.40
6956;DHT22;50345;51.136;16.886;2022-08-01T16:40:00;26.60;68.60
6956;DHT22;50345;51.136;16.886;2022-08-01T17:01:56;25.60;86.40
6956;DHT22;50345;51.136;16.886;2022-08-01T17:04:21;25.50;90.80
6956;DHT22;50345;51.136;16.886;2022-08-01T17:06:47;25.40;93.00
6956;DHT22;50345;51.136;16.886;2022-08-01T17:09:14;25.30;94.60
6956;DHT22;50345;51.136;16.886;2022-08-01T17:11:39;25.30;96.40
6956;DHT22;50345;51.136;16.886;2022-08-01T17:14:05;25.10;99.00
6956;DHT22;50345;51.136;16.886;2022-08-01T17:38:25;24.30;99.90
6956;DHT22;50345;51.136;16.886;2022-08-01T17:43:17;24.20;99.90
6956;DHT22;50345;51.136;16.886;2022-08-01T17:45:43;24.10;99.90
6956;DHT22;50345;51.136;16.886;2022-08-01T17:48:09;24.00;99.90
6956;DHT22;50345;51.136;16.886;2022-08-01T17:53:08;23.80;99.90
6956;DHT22;50345;51.136;16.886;2022-08-01T17:55:34;23.70;99.90
6956;DHT22;50345;51.136;16.886;2022-08-01T18:00:29;23.60;99.90
6956;DHT22;50345;51.136;16.886;2022-08-01T18:02:55;23.50;99.90
6956;DHT22;50345;51.136;16.886;2022-08-01T18:05:20;23.30;99.90
6956;DHT22;50345;51.136;16.886;2022-08-01T18:07:46;23.30;99.90
6956;DHT22;50345;51.136;16.886;2022-08-01T18:12:38;23.10;99.90
6956;DHT22;50345;51.136;16.886;2022-08-01T18:15:04;23.00;99.90
6956;DHT22;50345;51.136;16.886;2022-08-01T18:17:30;23.00;99.90
6956;DHT22;50345;51.136;16.886;2022-08-01T18:19:56;22.90;99.90
6956;DHT22;50345;51.136;16.886;2022-08-01T18:22:22;22.90;99.90
6956;DHT22;50345;51.136;16.886;2022-08-01T18:24:47;22.80;99.90
6956;DHT22;50345;51.136;16.886;2022-08-01T18:27:13;22.70;99.90
6956;DHT22;50345;51.136;16.886;2022-08-01T18:29:39;22.70;99.90
6956;DHT22;50345;51.136;16.886;2022-08-01T18:36:56;22.50;99.90
6956;DHT22;50345;51.136;16.886;2022-08-01T18:39:22;22.50;99.90
6956;DHT22;50345;51.136;16.886;2022-08-01T18:41:48;22.50;99.90
6956;DHT22;50345;51.136;16.886;2022-08-01T18:46:40;22.40;99.90
6956;DHT22;50345;51.136;16.886;2022-08-01T18:49:09;22.40;99.90
6956;DHT22;50345;51.136;16.886;2022-08-01T18:51:35;22.40;99.90
6956;DHT22;50345;51.136;16.886;2022-08-01T18:54:01;22.30;99.90
6956;DHT22;50345;51.136;16.886;2022-08-01T18:56:26;22.30;99.90
6956;DHT22;50345;51.136;16.886;2022-08-01T18:58:53;22.20;99.90
6956;DHT22;50345;51.136;16.886;2022-08-01T19:01:19;22.20;99.90
6956;DHT22;50345;51.136;16.886;2022-08-01T19:03:45;22.10;99.90
6956;DHT22;50345;51.136;16.886;2022-08-01T19:06:11;22.00;99.90
6956;DHT22;50345;51.136;16.886;2022-08-01T19:08:37;22.00;99.90
6956;DHT22;50345;51.136;16.886;2022-08-01T19:11:04;21.90;99.90
6956;DHT22;50345;51.136;16.886;2022-08-01T19:13:33;21.80;99.90
6956;DHT22;50345;51.136;16.886;2022-08-01T19:15:59;21.80;99.90
6956;DHT22;50345;51.136;16.886;2022-08-01T19:18:25;21.60;99.90
6956;DHT22;50345;51.136;16.886;2022-08-01T19:20:52;21.60;99.90
6956;DHT22;50345;51.136;16.886;2022-08-01T19:23:17;21.50;99.90
6956;DHT22;50345;51.136;16.886;2022-08-01T19:26:03;21.40;99.90
6956;DHT22;50345;51.136;16.886;2022-08-01T19:28:34;21.30;99.90
6956;DHT22;50345;51.136;16.886;2022-08-01T19:31:03;21.20;99.90
6956;DHT22;50345;51.136;16.886;2022-08-01T19:33:36;21.20;99.90
6956;DHT22;50345;51.136;16.886;2022-08-01T19:36:02;21.10;99.90
6956;DHT22;50345;51.136;16.886;2022-08-01T19:38:28;21.10;99.90
6956;DHT22;50345;51.136;16.886;2022-08-01T19:40:55;21.10;99.90
6956;DHT22;50345;51.136;16.886;2022-08-01T19:43:21;21.10;99.90
6956;DHT22;50345;51.136;16.886;2022-08-01T19:45:48;21.10;99.90
6956;DHT22;50345;51.136;16.886;2022-08-01T19:48:14;21.00;99.90
6956;DHT22;50345;51.136;16.886;2022-08-01T19:50:40;21.10;99.90
6956;DHT22;50345;51.136;16.886;2022-08-01T19:53:10;21.00;99.90
6956;DHT22;50345;51.136;16.886;2022-08-01T19:55:39;21.10;99.90
6956;DHT22;50345;51.136;16.886;2022-08-01T19:58:07;21.00;99.90
6956;DHT22;50345;51.136;16.886;2022-08-01T20:00:38;21.00;99.90
6956;DHT22;50345;51.136;16.886;2022-08-01T20:03:04;21.00;99.90
6956;DHT22;50345;51.136;16.886;2022-08-01T20:05:31;21.00;99.90
6956;DHT22;50345;51.136;16.886;2022-08-01T20:07:57;20.90;99.90
6956;DHT22;50345;51.136;16.886;2022-08-01T20:10:23;20.90;99.90
6956;DHT22;50345;51.136;16.886;2022-08-01T20:12:48;20.90;99.90
6956;DHT22;50345;51.136;16.886;2022-08-01T20:15:15;20.90;99.90
6956;DHT22;50345;51.136;16.886;2022-08-01T20:17:41;20.90;99.90
6956;DHT22;50345;51.136;16.886;2022-08-01T20:20:07;20.80;99.90
6956;DHT22;50345;51.136;16.886;2022-08-01T20:22:34;20.80;99.90
6956;DHT22;50345;51.136;16.886;2022-08-01T20:25:01;20.70;99.90
6956;DHT22;50345;51.136;16.886;2022-08-01T20:27:29;20.70;99.90
6956;DHT22;50345;51.136;16.886;2022-08-01T20:29:59;20.70;99.90
6956;DHT22;50345;51.136;16.886;2022-08-01T20:32:31;20.60;99.90
6956;DHT22;50345;51.136;16.886;2022-08-01T20:34:58;20.60;99.90
6956;DHT22;50345;51.136;16.886;2022-08-01T20:37:24;20.60;99.90
6956;DHT22;50345;51.136;16.886;2022-08-01T20:39:52;20.50;99.90
6956;DHT22;50345;51.136;16.886;2022-08-01T20:42:23;20.50;99.90
6956;DHT22;50345;51.136;16.886;2022-08-01T20:44:49;20.50;99.90
6956;DHT22;50345;51.136;16.886;2022-08-01T20:47:16;20.40;99.90
6956;DHT22;50345;51.136;16.886;2022-08-01T20:49:42;20.40;99.90
6956;DHT22;50345;51.136;16.886;2022-08-01T20:52:09;20.30;99.90
6956;DHT22;50345;51.136;16.886;2022-08-01T20:54:34;20.30;99.90
6956;DHT22;50345;51.136;16.886;2022-08-01T20:57:04;20.30;99.90
6956;DHT22;50345;51.136;16.886;2022-08-01T20:59:36;20.30;99.90
6956;DHT22;50345;51.136;16.886;2022-08-01T21:07:26;20.30;99.90
6956;DHT22;50345;51.136;16.886;2022-08-01T21:10:12;20.30;99.90
6956;DHT22;50345;51.136;16.886;2022-08-01T21:12:59;20.30;99.90
6956;DHT22;50345;51.136;16.886;2022-08-01T21:18:09;20.20;99.90
6956;DHT22;50345;51.136;16.886;2022-08-01T21:20:38;20.20;99.90
6956;DHT22;50345;51.136;16.886;2022-08-01T21:23:19;20.10;99.90
6956;DHT22;50345;51.136;16.886;2022-08-01T21:25:47;20.10;99.90
6956;DHT22;50345;51.136;16.886;2022-08-01T21:28:13;20.10;99.90
6956;DHT22;50345;51.136;16.886;2022-08-01T21:30:42;20.10;99.90
6956;DHT22;50345;51.136;16.886;2022-08-01T21:33:10;20.00;99.90
6956;DHT22;50345;51.136;16.886;2022-08-01T21:35:37;20.00;99.90
6956;DHT22;50345;51.136;16.886;2022-08-01T21:38:03;20.00;99.90
6956;DHT22;50345;51.136;16.886;2022-08-01T21:40:32;19.90;99.90
6956;DHT22;50345;51.136;16.886;2022-08-01T21:42:58;19.90;99.90
6956;DHT22;50345;51.136;16.886;2022-08-01T21:45:28;19.90;99.90
6956;DHT22;50345;51.136;16.886;2022-08-01T21:47:56;19.90;99.90
6956;DHT22;50345;51.136;16.886;2022-08-01T21:50:23;19.90;99.90
6956;DHT22;50345;51.136;16.886;2022-08-01T21:53:05;19.80;99.90
6956;DHT22;50345;51.136;16.886;2022-08-01T21:55:47;19.80;99.90
6956;DHT22;50345;51.136;16.886;2022-08-01T22:01:17;19.80;99.90
6956;DHT22;50345;51.136;16.886;2022-08-01T22:03:46;19.80;99.90
6956;DHT22;50345;51.136;16.886;2022-08-01T22:06:14;19.80;99.90
6956;DHT22;50345;51.136;16.886;2022-08-01T22:08:48;19.80;99.90
6956;DHT22;50345;51.136;16.886;2022-08-01T22:11:20;19.70;99.90
6956;DHT22;50345;51.136;16.886;2022-08-01T22:14:04;19.70;99.90
6956;DHT22;50345;51.136;16.886;2022-08-01T22:16:31;19.70;99.90
6956;DHT22;50345;51.136;16.886;2022-08-01T22:19:00;19.70;99.90
6956;DHT22;50345;51.136;16.886;2022-08-01T22:21:26;19.70;99.90
6956;DHT22;50345;51.136;16.886;2022-08-01T22:23:52;19.70;99.90
6956;DHT22;50345;51.136;16.886;2022-08-01T22:26:20;19.70;99.90
6956;DHT22;50345;51.136;16.886;2022-08-01T22:28:51;19.60;99.90
6956;DHT22;50345;51.136;16.886;2022-08-01T22:31:17;19.60;99.90
6956;DHT22;50345;51.136;16.886;2022-08-01T22:33:45;19.60;99.90
6956;DHT22;50345;51.136;16.886;2022-08-01T22:36:11;19.60;99.90
6956;DHT22;50345;51.136;16.886;2022-08-01T22:38:37;19.60;99.90
6956;DHT22;50345;51.136;16.886;2022-08-01T22:41:13;19.60;99.90
6956;DHT22;50345;51.136;16.886;2022-08-01T22:44:07;19.60;99.90
6956;DHT22;50345;51.136;16.886;2022-08-01T22:46:55;19.60;99.90
6956;DHT22;50345;51.136;16.886;2022-08-01T22:49:45;19.60;99.90
6956;DHT22;50345;51.136;16.886;2022-08-01T22:52:18;19.60;99.90
6956;DHT22;50345;51.136;16.886;2022-08-01T22:54:57;19.50;99.90
6956;DHT22;50345;51.136;16.886;2022-08-01T23:00:11;19.50;99.90
6956;DHT22;50345;51.136;16.886;2022-08-01T23:02:45;19.50;99.90
6956;DHT22;50345;51.136;16.886;2022-08-01T23:05:13;19.50;99.90
6956;DHT22;50345;51.136;16.886;2022-08-01T23:07:51;19.50;99.90
6956;DHT22;50345;51.136;16.886;2022-08-01T23:10:19;19.50;99.90
6956;DHT22;50345;51.136;16.886;2022-08-01T23:12:47;19.40;99.90
6956;DHT22;50345;51.136;16.886;2022-08-01T23:15:14;19.40;99.90
6956;DHT22;50345;51.136;16.886;2022-08-01T23:17:41;19.40;99.90
6956;DHT22;50345;51.136;16.886;2022-08-01T23:20:07;19.40;99.90
6956;DHT22;50345;51.136;16.886;2022-08-01T23:22:35;19.20;99.90
6956;DHT22;50345;51.136;16.886;2022-08-01T23:25:07;19.20;99.90
6956;DHT22;50345;51.136;16.886;2022-08-01T23:27:35;19.20;99.90
6956;DHT22;50345;51.136;16.886;2022-08-01T23:30:01;19.20;99.90
6956;DHT22;50345;51.136;16.886;2022-08-01T23:32:27;19.20;99.90
6956;DHT22;50345;51.136;16.886;2022-08-01T23:34:52;19.20;99.90
6956;DHT22;50345;51.136;16.886;2022-08-01T23:37:18;19.20;99.90
6956;DHT22;50345;51.136;16.886;2022-08-01T23:39:44;19.20;99.90
6956;DHT22;50345;51.136;16.886;2022-08-01T23:42:11;19.20;99.90
6956;DHT22;50345;51.136;16.886;2022-08-01T23:44:37;19.20;99.90
6956;DHT22;50345;51.136;16.886;2022-08-01T23:47:04;19.10;99.90
6956;DHT22;50345;51.136;16.886;2022-08-01T23:49:29;19.10;99.90
6956;DHT22;50345;51.136;16.886;2022-08-01T23:51:55;19.20;99.90
6956;DHT22;50345;51.136;16.886;2022-08-01T23:54:21;19.10;99.90
6956;DHT22;50345;51.136;16.886;2022-08-01T23:56:47;19.10;99.90
6956;DHT22;50345;51.136;16.886;2022-08-01T23:59:12;19.10;99.90
